Main page
Satellite images 10-day forecastsClimateMarine weather Cyclones Lightning AirportsFAQ Newsletter About
Weather : Europe Africa North America South America Asia Australia-Oceania Others
Languages Contact

Ciudad Del Este, Paraguay

Guaraní International Airport

latitude: 25-27-20S, longitude: 054-50-37W, elevation: 257 m


METAR: SGES 061200Z 16004KT 9000 NSC 17/14 Q1019
TAF: SGES 061012Z 0612/0712 20003KT 9000 NSC TX26/0619Z TN10/0709Z BECMG 0613/0616 14008KT CAVOK

Time: 08:28 (12:28 UTC)

Current weather observation

The report was made 28 minutes ago, at 12:00 UTC
Wind 4 kt from the South/Southeast
Temperature 17°C
Humidity 82%
Pressure 1019 hPa
Visibility: 9000 m

Change units

Forecast

The report was made 2 hours and 16 minutes ago, at 10:12 UTC
Forecast valid from 06 at 12 UTC to 07 at 12 UTC
Wind 3 kt from the South/Southwest
Visibility: 9000 m
Becoming
from 06 at 13 UTC to 06 at 16 UTC
Wind 8 kt from the Southeast
Visibility 10 km or more
no clouds below 1500 m and no cumulonimbus
The information on this site is subject to a disclaimer
Weather : Europe Africa North America South America Asia Australia-Oceania Others
Satellite images 10-day forecastsClimateMarine weather Cyclones Lightning AirportsFAQ Languages Contact Newsletter About